sensor_id;sensor_type;location;lat;lon;timestamp;P1;P2;P0
40371;PMS5003;28564;53.346;-6.554;2023-12-04T00:01:57;3;2;
40371;PMS5003;28564;53.346;-6.554;2023-12-04T00:04:25;2;2;
40371;PMS5003;28564;53.346;-6.554;2023-12-04T00:06:52;2;2;
40371;PMS5003;28564;53.346;-6.554;2023-12-04T00:09:19;2;2;
40371;PMS5003;28564;53.346;-6.554;2023-12-04T00:11:47;2;2;
40371;PMS5003;28564;53.346;-6.554;2023-12-04T00:14:14;1;1;
40371;PMS5003;28564;53.346;-6.554;2023-12-04T00:16:41;2;2;
40371;PMS5003;28564;53.346;-6.554;2023-12-04T00:19:09;1;1;
40371;PMS5003;28564;53.346;-6.554;2023-12-04T00:21:36;2;2;
40371;PMS5003;28564;53.346;-6.554;2023-12-04T00:24:04;3;3;
40371;PMS5003;28564;53.346;-6.554;2023-12-04T00:26:32;2;2;
40371;PMS5003;28564;53.346;-6.554;2023-12-04T00:28:59;3;2;
40371;PMS5003;28564;53.346;-6.554;2023-12-04T00:31:27;3;3;
40371;PMS5003;28564;53.346;-6.554;2023-12-04T00:33:54;4;3;
40371;PMS5003;28564;53.346;-6.554;2023-12-04T00:36:22;11;5;
40371;PMS5003;28564;53.346;-6.554;2023-12-04T00:38:49;5;4;
40371;PMS5003;28564;53.346;-6.554;2023-12-04T00:41:16;5;5;
40371;PMS5003;28564;53.346;-6.554;2023-12-04T00:43:44;8;4;
40371;PMS5003;28564;53.346;-6.554;2023-12-04T00:46:11;5;5;
40371;PMS5003;28564;53.346;-6.554;2023-12-04T00:48:38;5;5;
40371;PMS5003;28564;53.346;-6.554;2023-12-04T00:51:06;5;5;
40371;PMS5003;28564;53.346;-6.554;2023-12-04T00:53:33;5;4;
40371;PMS5003;28564;53.346;-6.554;2023-12-04T00:56:01;2;2;
40371;PMS5003;28564;53.346;-6.554;2023-12-04T00:58:28;5;5;
40371;PMS5003;28564;53.346;-6.554;2023-12-04T01:00:55;3;3;
40371;PMS5003;28564;53.346;-6.554;2023-12-04T01:03:23;4;4;
40371;PMS5003;28564;53.346;-6.554;2023-12-04T01:05:50;5;4;
40371;PMS5003;28564;53.346;-6.554;2023-12-04T01:08:17;2;2;
40371;PMS5003;28564;53.346;-6.554;2023-12-04T01:10:45;2;2;
40371;PMS5003;28564;53.346;-6.554;2023-12-04T01:13:13;5;3;
40371;PMS5003;28564;53.346;-6.554;2023-12-04T01:15:40;3;3;
40371;PMS5003;28564;53.346;-6.554;2023-12-04T01:18:08;5;3;
40371;PMS5003;28564;53.346;-6.554;2023-12-04T01:20:35;3;2;
40371;PMS5003;28564;53.346;-6.554;2023-12-04T01:23:02;4;3;
40371;PMS5003;28564;53.346;-6.554;2023-12-04T01:25:30;3;3;
40371;PMS5003;28564;53.346;-6.554;2023-12-04T01:27:57;3;2;
40371;PMS5003;28564;53.346;-6.554;2023-12-04T01:30:24;3;3;
40371;PMS5003;28564;53.346;-6.554;2023-12-04T01:32:52;4;3;
40371;PMS5003;28564;53.346;-6.554;2023-12-04T01:35:19;3;3;
40371;PMS5003;28564;53.346;-6.554;2023-12-04T01:37:46;4;3;
40371;PMS5003;28564;53.346;-6.554;2023-12-04T01:40:14;3;3;
40371;PMS5003;28564;53.346;-6.554;2023-12-04T01:42:42;5;4;
40371;PMS5003;28564;53.346;-6.554;2023-12-04T01:45:09;4;4;
40371;PMS5003;28564;53.346;-6.554;2023-12-04T01:47:37;7;5;
40371;PMS5003;28564;53.346;-6.554;2023-12-04T01:50:04;4;4;
40371;PMS5003;28564;53.346;-6.554;2023-12-04T01:52:33;3;3;
40371;PMS5003;28564;53.346;-6.554;2023-12-04T01:55:00;3;3;
40371;PMS5003;28564;53.346;-6.554;2023-12-04T01:57:28;7;4;
40371;PMS5003;28564;53.346;-6.554;2023-12-04T01:59:55;4;4;
40371;PMS5003;28564;53.346;-6.554;2023-12-04T02:02:22;3;3;
40371;PMS5003;28564;53.346;-6.554;2023-12-04T02:04:50;3;3;
40371;PMS5003;28564;53.346;-6.554;2023-12-04T02:07:17;4;4;
40371;PMS5003;28564;53.346;-6.554;2023-12-04T02:09:44;3;3;
40371;PMS5003;28564;53.346;-6.554;2023-12-04T02:12:11;3;3;
40371;PMS5003;28564;53.346;-6.554;2023-12-04T02:14:39;3;3;
40371;PMS5003;28564;53.346;-6.554;2023-12-04T02:17:06;7;3;
40371;PMS5003;28564;53.346;-6.554;2023-12-04T02:19:34;3;3;
40371;PMS5003;28564;53.346;-6.554;2023-12-04T02:22:02;8;5;
40371;PMS5003;28564;53.346;-6.554;2023-12-04T02:24:29;2;2;
40371;PMS5003;28564;53.346;-6.554;2023-12-04T02:26:58;5;5;
40371;PMS5003;28564;53.346;-6.554;2023-12-04T02:29:32;7;5;
40371;PMS5003;28564;53.346;-6.554;2023-12-04T02:32:04;4;4;
40371;PMS5003;28564;53.346;-6.554;2023-12-04T02:34:35;5;5;
40371;PMS5003;28564;53.346;-6.554;2023-12-04T02:37:04;3;3;
40371;PMS5003;28564;53.346;-6.554;2023-12-04T02:39:32;4;3;
40371;PMS5003;28564;53.346;-6.554;2023-12-04T02:42:00;5;4;
40371;PMS5003;28564;53.346;-6.554;2023-12-04T02:44:27;4;4;
40371;PMS5003;28564;53.346;-6.554;2023-12-04T02:46:54;7;6;
40371;PMS5003;28564;53.346;-6.554;2023-12-04T02:49:22;4;4;
40371;PMS5003;28564;53.346;-6.554;2023-12-04T02:51:49;7;7;
40371;PMS5003;28564;53.346;-6.554;2023-12-04T02:54:16;4;3;
40371;PMS5003;28564;53.346;-6.554;2023-12-04T02:56:44;3;3;
40371;PMS5003;28564;53.346;-6.554;2023-12-04T02:59:11;2;2;
40371;PMS5003;28564;53.346;-6.554;2023-12-04T03:01:38;6;2;
40371;PMS5003;28564;53.346;-6.554;2023-12-04T03:04:06;6;3;
40371;PMS5003;28564;53.346;-6.554;2023-12-04T03:06:33;4;4;
40371;PMS5003;28564;53.346;-6.554;2023-12-04T03:09:02;3;3;
40371;PMS5003;28564;53.346;-6.554;2023-12-04T03:11:29;4;4;
40371;PMS5003;28564;53.346;-6.554;2023-12-04T03:13:56;3;3;
40371;PMS5003;28564;53.346;-6.554;2023-12-04T03:16:26;4;4;
40371;PMS5003;28564;53.346;-6.554;2023-12-04T03:18:54;3;3;
40371;PMS5003;28564;53.346;-6.554;2023-12-04T03:21:21;8;3;
40371;PMS5003;28564;53.346;-6.554;2023-12-04T03:23:48;6;3;
40371;PMS5003;28564;53.346;-6.554;2023-12-04T03:26:16;3;3;
40371;PMS5003;28564;53.346;-6.554;2023-12-04T03:28:43;2;2;
40371;PMS5003;28564;53.346;-6.554;2023-12-04T03:31:11;4;4;
40371;PMS5003;28564;53.346;-6.554;2023-12-04T03:33:38;4;3;
40371;PMS5003;28564;53.346;-6.554;2023-12-04T03:36:06;3;3;
40371;PMS5003;28564;53.346;-6.554;2023-12-04T03:38:34;3;3;
40371;PMS5003;28564;53.346;-6.554;2023-12-04T03:41:01;7;4;
40371;PMS5003;28564;53.346;-6.554;2023-12-04T03:43:28;3;2;
40371;PMS5003;28564;53.346;-6.554;2023-12-04T03:45:56;3;3;
40371;PMS5003;28564;53.346;-6.554;2023-12-04T03:48:23;1;1;
40371;PMS5003;28564;53.346;-6.554;2023-12-04T03:50:50;4;3;
40371;PMS5003;28564;53.346;-6.554;2023-12-04T03:53:18;4;3;
40371;PMS5003;28564;53.346;-6.554;2023-12-04T03:55:45;4;4;
40371;PMS5003;28564;53.346;-6.554;2023-12-04T03:58:13;2;2;
40371;PMS5003;28564;53.346;-6.554;2023-12-04T04:00:40;3;3;
40371;PMS5003;28564;53.346;-6.554;2023-12-04T04:03:07;4;3;
40371;PMS5003;28564;53.346;-6.554;2023-12-04T04:05:35;2;2;
40371;PMS5003;28564;53.346;-6.554;2023-12-04T04:08:02;4;2;
40371;PMS5003;28564;53.346;-6.554;2023-12-04T04:10:29;2;2;
40371;PMS5003;28564;53.346;-6.554;2023-12-04T04:12:57;3;3;
40371;PMS5003;28564;53.346;-6.554;2023-12-04T04:15:24;4;4;
40371;PMS5003;28564;53.346;-6.554;2023-12-04T04:17:51;3;2;
40371;PMS5003;28564;53.346;-6.554;2023-12-04T04:20:19;6;6;
40371;PMS5003;28564;53.346;-6.554;2023-12-04T04:22:47;2;2;
40371;PMS5003;28564;53.346;-6.554;2023-12-04T04:25:15;3;3;
40371;PMS5003;28564;53.346;-6.554;2023-12-04T04:27:42;2;2;
40371;PMS5003;28564;53.346;-6.554;2023-12-04T04:30:09;3;3;
40371;PMS5003;28564;53.346;-6.554;2023-12-04T04:32:37;3;3;
40371;PMS5003;28564;53.346;-6.554;2023-12-04T04:35:05;2;2;
40371;PMS5003;28564;53.346;-6.554;2023-12-04T04:37:33;3;3;
40371;PMS5003;28564;53.346;-6.554;2023-12-04T04:40:00;3;3;
40371;PMS5003;28564;53.346;-6.554;2023-12-04T04:42:28;3;3;
40371;PMS5003;28564;53.346;-6.554;2023-12-04T04:44:55;3;3;
40371;PMS5003;28564;53.346;-6.554;2023-12-04T04:47:22;3;3;
40371;PMS5003;28564;53.346;-6.554;2023-12-04T04:49:50;4;2;
40371;PMS5003;28564;53.346;-6.554;2023-12-04T04:52:17;4;4;
40371;PMS5003;28564;53.346;-6.554;2023-12-04T04:54:45;4;4;
40371;PMS5003;28564;53.346;-6.554;2023-12-04T04:57:12;3;3;
40371;PMS5003;28564;53.346;-6.554;2023-12-04T04:59:39;4;4;
40371;PMS5003;28564;53.346;-6.554;2023-12-04T05:02:07;4;3;
40371;PMS5003;28564;53.346;-6.554;2023-12-04T05:04:34;6;6;
40371;PMS5003;28564;53.346;-6.554;2023-12-04T05:07:02;7;6;
40371;PMS5003;28564;53.346;-6.554;2023-12-04T05:09:29;8;6;
40371;PMS5003;28564;53.346;-6.554;2023-12-04T05:11:56;6;6;
40371;PMS5003;28564;53.346;-6.554;2023-12-04T05:14:24;3;3;
40371;PMS5003;28564;53.346;-6.554;2023-12-04T05:16:51;9;6;
40371;PMS5003;28564;53.346;-6.554;2023-12-04T05:19:18;6;6;
40371;PMS5003;28564;53.346;-6.554;2023-12-04T05:21:46;9;9;
40371;PMS5003;28564;53.346;-6.554;2023-12-04T05:24:13;10;10;
40371;PMS5003;28564;53.346;-6.554;2023-12-04T05:26:41;7;7;
40371;PMS5003;28564;53.346;-6.554;2023-12-04T05:29:08;6;6;
40371;PMS5003;28564;53.346;-6.554;2023-12-04T05:31:35;6;6;
40371;PMS5003;28564;53.346;-6.554;2023-12-04T05:34:03;8;7;
40371;PMS5003;28564;53.346;-6.554;2023-12-04T05:36:30;7;7;
40371;PMS5003;28564;53.346;-6.554;2023-12-04T05:38:57;9;7;
40371;PMS5003;28564;53.346;-6.554;2023-12-04T05:41:25;8;6;
40371;PMS5003;28564;53.346;-6.554;2023-12-04T05:43:52;6;6;
40371;PMS5003;28564;53.346;-6.554;2023-12-04T05:46:20;10;8;
40371;PMS5003;28564;53.346;-6.554;2023-12-04T05:48:47;6;6;
40371;PMS5003;28564;53.346;-6.554;2023-12-04T05:51:14;9;9;
40371;PMS5003;28564;53.346;-6.554;2023-12-04T05:53:42;14;8;
40371;PMS5003;28564;53.346;-6.554;2023-12-04T05:56:10;8;8;
40371;PMS5003;28564;53.346;-6.554;2023-12-04T05:58:37;9;9;
40371;PMS5003;28564;53.346;-6.554;2023-12-04T06:01:04;10;8;
40371;PMS5003;28564;53.346;-6.554;2023-12-04T06:03:31;11;9;
40371;PMS5003;28564;53.346;-6.554;2023-12-04T06:05:59;9;8;
40371;PMS5003;28564;53.346;-6.554;2023-12-04T06:08:27;7;7;
40371;PMS5003;28564;53.346;-6.554;2023-12-04T06:10:54;8;7;
40371;PMS5003;28564;53.346;-6.554;2023-12-04T06:13:21;7;7;
40371;PMS5003;28564;53.346;-6.554;2023-12-04T06:15:48;11;11;
40371;PMS5003;28564;53.346;-6.554;2023-12-04T06:18:16;9;8;
40371;PMS5003;28564;53.346;-6.554;2023-12-04T06:20:43;9;9;
40371;PMS5003;28564;53.346;-6.554;2023-12-04T06:23:11;8;7;
40371;PMS5003;28564;53.346;-6.554;2023-12-04T06:25:38;8;8;
40371;PMS5003;28564;53.346;-6.554;2023-12-04T06:28:07;7;7;
40371;PMS5003;28564;53.346;-6.554;2023-12-04T06:30:36;13;8;
40371;PMS5003;28564;53.346;-6.554;2023-12-04T06:33:03;8;8;
40371;PMS5003;28564;53.346;-6.554;2023-12-04T06:35:31;6;6;
40371;PMS5003;28564;53.346;-6.554;2023-12-04T06:37:58;8;8;
40371;PMS5003;28564;53.346;-6.554;2023-12-04T06:40:32;8;7;
40371;PMS5003;28564;53.346;-6.554;2023-12-04T06:43:01;4;4;
40371;PMS5003;28564;53.346;-6.554;2023-12-04T06:45:29;9;7;
40371;PMS5003;28564;53.346;-6.554;2023-12-04T06:47:56;8;6;
40371;PMS5003;28564;53.346;-6.554;2023-12-04T06:50:24;11;9;
40371;PMS5003;28564;53.346;-6.554;2023-12-04T06:52:52;9;7;
40371;PMS5003;28564;53.346;-6.554;2023-12-04T06:55:19;11;8;
40371;PMS5003;28564;53.346;-6.554;2023-12-04T06:57:46;11;8;
40371;PMS5003;28564;53.346;-6.554;2023-12-04T07:00:14;9;9;
40371;PMS5003;28564;53.346;-6.554;2023-12-04T07:02:42;8;6;
40371;PMS5003;28564;53.346;-6.554;2023-12-04T07:05:09;9;6;
40371;PMS5003;28564;53.346;-6.554;2023-12-04T07:07:37;9;8;
40371;PMS5003;28564;53.346;-6.554;2023-12-04T07:10:05;7;4;
40371;PMS5003;28564;53.346;-6.554;2023-12-04T07:12:33;8;8;
40371;PMS5003;28564;53.346;-6.554;2023-12-04T07:15:00;8;8;
40371;PMS5003;28564;53.346;-6.554;2023-12-04T07:17:27;8;8;
40371;PMS5003;28564;53.346;-6.554;2023-12-04T07:19:55;8;8;
40371;PMS5003;28564;53.346;-6.554;2023-12-04T07:22:22;7;7;
40371;PMS5003;28564;53.346;-6.554;2023-12-04T07:24:50;9;7;
40371;PMS5003;28564;53.346;-6.554;2023-12-04T07:27:17;7;6;
40371;PMS5003;28564;53.346;-6.554;2023-12-04T07:29:44;11;7;
40371;PMS5003;28564;53.346;-6.554;2023-12-04T07:32:12;8;8;
40371;PMS5003;28564;53.346;-6.554;2023-12-04T07:34:39;6;6;
40371;PMS5003;28564;53.346;-6.554;2023-12-04T07:37:06;4;4;
40371;PMS5003;28564;53.346;-6.554;2023-12-04T07:39:34;7;7;
40371;PMS5003;28564;53.346;-6.554;2023-12-04T07:42:01;13;7;
40371;PMS5003;28564;53.346;-6.554;2023-12-04T07:44:29;8;6;
40371;PMS5003;28564;53.346;-6.554;2023-12-04T07:46:56;12;8;
40371;PMS5003;28564;53.346;-6.554;2023-12-04T07:49:23;9;8;
40371;PMS5003;28564;53.346;-6.554;2023-12-04T07:51:51;6;4;
40371;PMS5003;28564;53.346;-6.554;2023-12-04T07:54:18;8;6;
40371;PMS5003;28564;53.346;-6.554;2023-12-04T07:56:45;8;8;
40371;PMS5003;28564;53.346;-6.554;2023-12-04T07:59:13;9;9;
40371;PMS5003;28564;53.346;-6.554;2023-12-04T08:01:40;12;9;
40371;PMS5003;28564;53.346;-6.554;2023-12-04T08:04:08;8;7;
40371;PMS5003;28564;53.346;-6.554;2023-12-04T08:06:35;13;8;
40371;PMS5003;28564;53.346;-6.554;2023-12-04T08:09:03;14;9;
40371;PMS5003;28564;53.346;-6.554;2023-12-04T08:11:30;13;9;
40371;PMS5003;28564;53.346;-6.554;2023-12-04T08:13:58;11;11;
40371;PMS5003;28564;53.346;-6.554;2023-12-04T08:16:25;11;9;
40371;PMS5003;28564;53.346;-6.554;2023-12-04T08:18:52;11;8;
40371;PMS5003;28564;53.346;-6.554;2023-12-04T08:21:20;11;11;
40371;PMS5003;28564;53.346;-6.554;2023-12-04T08:23:47;7;7;
40371;PMS5003;28564;53.346;-6.554;2023-12-04T08:26:20;8;7;
40371;PMS5003;28564;53.346;-6.554;2023-12-04T08:28:47;7;7;
40371;PMS5003;28564;53.346;-6.554;2023-12-04T08:31:15;8;7;
40371;PMS5003;28564;53.346;-6.554;2023-12-04T08:33:42;11;8;
40371;PMS5003;28564;53.346;-6.554;2023-12-04T08:36:10;11;7;
40371;PMS5003;28564;53.346;-6.554;2023-12-04T08:38:38;8;7;
40371;PMS5003;28564;53.346;-6.554;2023-12-04T08:41:06;8;8;
40371;PMS5003;28564;53.346;-6.554;2023-12-04T08:43:33;13;8;
40371;PMS5003;28564;53.346;-6.554;2023-12-04T08:46:00;11;8;
40371;PMS5003;28564;53.346;-6.554;2023-12-04T08:48:29;8;8;
40371;PMS5003;28564;53.346;-6.554;2023-12-04T08:50:56;12;8;
40371;PMS5003;28564;53.346;-6.554;2023-12-04T08:53:24;12;7;
40371;PMS5003;28564;53.346;-6.554;2023-12-04T08:55:51;7;7;
40371;PMS5003;28564;53.346;-6.554;2023-12-04T08:58:18;8;7;
40371;PMS5003;28564;53.346;-6.554;2023-12-04T09:00:46;6;6;
40371;PMS5003;28564;53.346;-6.554;2023-12-04T09:03:13;14;8;
40371;PMS5003;28564;53.346;-6.554;2023-12-04T09:05:41;9;9;
40371;PMS5003;28564;53.346;-6.554;2023-12-04T09:08:08;11;11;
40371;PMS5003;28564;53.346;-6.554;2023-12-04T09:10:36;12;11;
40371;PMS5003;28564;53.346;-6.554;2023-12-04T09:13:04;8;8;
40371;PMS5003;28564;53.346;-6.554;2023-12-04T09:15:31;4;4;
40371;PMS5003;28564;53.346;-6.554;2023-12-04T09:17:59;13;7;
40371;PMS5003;28564;53.346;-6.554;2023-12-04T09:20:26;7;7;
40371;PMS5003;28564;53.346;-6.554;2023-12-04T09:22:54;8;8;
40371;PMS5003;28564;53.346;-6.554;2023-12-04T09:25:21;7;7;
40371;PMS5003;28564;53.346;-6.554;2023-12-04T09:27:48;12;12;
40371;PMS5003;28564;53.346;-6.554;2023-12-04T09:30:16;8;7;
40371;PMS5003;28564;53.346;-6.554;2023-12-04T09:32:43;12;11;
40371;PMS5003;28564;53.346;-6.554;2023-12-04T09:35:10;11;11;
40371;PMS5003;28564;53.346;-6.554;2023-12-04T09:37:38;8;8;
40371;PMS5003;28564;53.346;-6.554;2023-12-04T09:40:06;8;7;
40371;PMS5003;28564;53.346;-6.554;2023-12-04T09:42:34;7;6;
40371;PMS5003;28564;53.346;-6.554;2023-12-04T09:45:01;7;7;
40371;PMS5003;28564;53.346;-6.554;2023-12-04T09:47:28;14;8;
40371;PMS5003;28564;53.346;-6.554;2023-12-04T09:49:56;9;7;
40371;PMS5003;28564;53.346;-6.554;2023-12-04T09:52:23;8;8;
40371;PMS5003;28564;53.346;-6.554;2023-12-04T09:54:53;11;7;
40371;PMS5003;28564;53.346;-6.554;2023-12-04T09:57:21;8;7;
40371;PMS5003;28564;53.346;-6.554;2023-12-04T09:59:50;9;8;
40371;PMS5003;28564;53.346;-6.554;2023-12-04T10:02:18;8;7;
40371;PMS5003;28564;53.346;-6.554;2023-12-04T10:04:47;9;8;
40371;PMS5003;28564;53.346;-6.554;2023-12-04T10:07:15;11;11;
40371;PMS5003;28564;53.346;-6.554;2023-12-04T10:09:42;11;11;
40371;PMS5003;28564;53.346;-6.554;2023-12-04T10:12:09;11;9;
40371;PMS5003;28564;53.346;-6.554;2023-12-04T10:14:37;11;11;
40371;PMS5003;28564;53.346;-6.554;2023-12-04T10:17:20;13;11;
40371;PMS5003;28564;53.346;-6.554;2023-12-04T10:19:47;9;9;
40371;PMS5003;28564;53.346;-6.554;2023-12-04T10:22:31;7;7;
40371;PMS5003;28564;53.346;-6.554;2023-12-04T10:24:59;6;6;
40371;PMS5003;28564;53.346;-6.554;2023-12-04T10:27:39;12;9;
40371;PMS5003;28564;53.346;-6.554;2023-12-04T10:30:07;8;7;
40371;PMS5003;28564;53.346;-6.554;2023-12-04T10:32:36;9;9;
40371;PMS5003;28564;53.346;-6.554;2023-12-04T10:35:03;7;7;
40371;PMS5003;28564;53.346;-6.554;2023-12-04T10:37:32;9;7;
40371;PMS5003;28564;53.346;-6.554;2023-12-04T10:40:02;9;7;
40371;PMS5003;28564;53.346;-6.554;2023-12-04T10:42:30;13;9;
40371;PMS5003;28564;53.346;-6.554;2023-12-04T10:44:58;8;6;
40371;PMS5003;28564;53.346;-6.554;2023-12-04T10:47:26;9;9;
40371;PMS5003;28564;53.346;-6.554;2023-12-04T10:49:55;11;8;
40371;PMS5003;28564;53.346;-6.554;2023-12-04T10:52:23;10;8;
40371;PMS5003;28564;53.346;-6.554;2023-12-04T10:54:51;10;10;
40371;PMS5003;28564;53.346;-6.554;2023-12-04T10:57:20;12;8;
40371;PMS5003;28564;53.346;-6.554;2023-12-04T10:59:55;9;9;
40371;PMS5003;28564;53.346;-6.554;2023-12-04T11:02:25;10;8;
40371;PMS5003;28564;53.346;-6.554;2023-12-04T11:04:54;13;9;
40371;PMS5003;28564;53.346;-6.554;2023-12-04T11:07:26;10;9;
40371;PMS5003;28564;53.346;-6.554;2023-12-04T11:09:54;12;9;
40371;PMS5003;28564;53.346;-6.554;2023-12-04T11:12:24;12;9;
40371;PMS5003;28564;53.346;-6.554;2023-12-04T11:14:56;15;12;
40371;PMS5003;28564;53.346;-6.554;2023-12-04T11:17:28;9;9;
40371;PMS5003;28564;53.346;-6.554;2023-12-04T11:19:59;13;10;
40371;PMS5003;28564;53.346;-6.554;2023-12-04T11:22:34;15;12;
40371;PMS5003;28564;53.346;-6.554;2023-12-04T11:25:02;18;12;
40371;PMS5003;28564;53.346;-6.554;2023-12-04T11:27:32;10;10;
40371;PMS5003;28564;53.346;-6.554;2023-12-04T11:30:00;10;10;
40371;PMS5003;28564;53.346;-6.554;2023-12-04T11:32:29;15;13;
40371;PMS5003;28564;53.346;-6.554;2023-12-04T11:34:58;12;8;
40371;PMS5003;28564;53.346;-6.554;2023-12-04T11:37:26;11;11;
40371;PMS5003;28564;53.346;-6.554;2023-12-04T11:39:53;9;9;
40371;PMS5003;28564;53.346;-6.554;2023-12-04T11:42:21;15;9;
40371;PMS5003;28564;53.346;-6.554;2023-12-04T11:44:49;11;8;
40371;PMS5003;28564;53.346;-6.554;2023-12-04T11:47:22;19;15;
40371;PMS5003;28564;53.346;-6.554;2023-12-04T11:49:49;10;10;
40371;PMS5003;28564;53.346;-6.554;2023-12-04T11:52:16;13;10;
40371;PMS5003;28564;53.346;-6.554;2023-12-04T11:54:58;14;10;
40371;PMS5003;28564;53.346;-6.554;2023-12-04T11:57:26;14;11;
40371;PMS5003;28564;53.346;-6.554;2023-12-04T12:00:08;11;10;
40371;PMS5003;28564;53.346;-6.554;2023-12-04T12:02:38;17;9;
40371;PMS5003;28564;53.346;-6.554;2023-12-04T12:05:06;8;8;
40371;PMS5003;28564;53.346;-6.554;2023-12-04T12:07:34;15;11;
40371;PMS5003;28564;53.346;-6.554;2023-12-04T12:10:01;16;10;
40371;PMS5003;28564;53.346;-6.554;2023-12-04T12:12:29;11;10;
40371;PMS5003;28564;53.346;-6.554;2023-12-04T12:14:57;11;8;
40371;PMS5003;28564;53.346;-6.554;2023-12-04T12:17:25;12;11;
40371;PMS5003;28564;53.346;-6.554;2023-12-04T12:19:52;10;10;
40371;PMS5003;28564;53.346;-6.554;2023-12-04T12:22:21;9;9;
40371;PMS5003;28564;53.346;-6.554;2023-12-04T12:24:48;14;12;
40371;PMS5003;28564;53.346;-6.554;2023-12-04T12:27:16;10;10;
40371;PMS5003;28564;53.346;-6.554;2023-12-04T12:29:44;12;11;
40371;PMS5003;28564;53.346;-6.554;2023-12-04T12:32:11;10;7;
40371;PMS5003;28564;53.346;-6.554;2023-12-04T12:34:39;11;7;
40371;PMS5003;28564;53.346;-6.554;2023-12-04T12:37:06;10;8;
40371;PMS5003;28564;53.346;-6.554;2023-12-04T12:39:33;9;9;
40371;PMS5003;28564;53.346;-6.554;2023-12-04T12:42:01;11;10;
40371;PMS5003;28564;53.346;-6.554;2023-12-04T12:44:28;15;10;
40371;PMS5003;28564;53.346;-6.554;2023-12-04T12:47:02;11;10;
40371;PMS5003;28564;53.346;-6.554;2023-12-04T12:49:29;9;8;
40371;PMS5003;28564;53.346;-6.554;2023-12-04T12:51:57;9;8;
40371;PMS5003;28564;53.346;-6.554;2023-12-04T12:54:25;9;8;
40371;PMS5003;28564;53.346;-6.554;2023-12-04T12:56:53;11;10;
40371;PMS5003;28564;53.346;-6.554;2023-12-04T12:59:20;11;11;
40371;PMS5003;28564;53.346;-6.554;2023-12-04T13:01:47;10;8;
40371;PMS5003;28564;53.346;-6.554;2023-12-04T13:04:15;9;8;
40371;PMS5003;28564;53.346;-6.554;2023-12-04T13:06:43;10;10;
40371;PMS5003;28564;53.346;-6.554;2023-12-04T13:09:11;14;14;
40371;PMS5003;28564;53.346;-6.554;2023-12-04T13:11:38;18;14;
40371;PMS5003;28564;53.346;-6.554;2023-12-04T13:14:05;14;10;
40371;PMS5003;28564;53.346;-6.554;2023-12-04T13:16:33;12;9;
40371;PMS5003;28564;53.346;-6.554;2023-12-04T13:19:00;9;8;
40371;PMS5003;28564;53.346;-6.554;2023-12-04T13:21:27;10;10;
40371;PMS5003;28564;53.346;-6.554;2023-12-04T13:23:55;9;8;
40371;PMS5003;28564;53.346;-6.554;2023-12-04T13:26:23;10;9;
40371;PMS5003;28564;53.346;-6.554;2023-12-04T13:28:50;9;6;
40371;PMS5003;28564;53.346;-6.554;2023-12-04T13:31:18;15;11;
40371;PMS5003;28564;53.346;-6.554;2023-12-04T13:33:45;8;6;
40371;PMS5003;28564;53.346;-6.554;2023-12-04T13:36:12;10;9;
40371;PMS5003;28564;53.346;-6.554;2023-12-04T13:38:40;11;10;
40371;PMS5003;28564;53.346;-6.554;2023-12-04T13:41:07;8;8;
40371;PMS5003;28564;53.346;-6.554;2023-12-04T13:43:34;8;6;
40371;PMS5003;28564;53.346;-6.554;2023-12-04T13:46:02;12;10;
40371;PMS5003;28564;53.346;-6.554;2023-12-04T13:48:29;11;10;
40371;PMS5003;28564;53.346;-6.554;2023-12-04T13:50:56;9;6;
40371;PMS5003;28564;53.346;-6.554;2023-12-04T13:53:23;12;10;
40371;PMS5003;28564;53.346;-6.554;2023-12-04T13:55:50;6;6;
40371;PMS5003;28564;53.346;-6.554;2023-12-04T13:58:18;12;12;
40371;PMS5003;28564;53.346;-6.554;2023-12-04T14:00:45;8;8;
40371;PMS5003;28564;53.346;-6.554;2023-12-04T14:03:12;10;6;
40371;PMS5003;28564;53.346;-6.554;2023-12-04T14:05:39;8;8;
40371;PMS5003;28564;53.346;-6.554;2023-12-04T14:08:06;6;6;
40371;PMS5003;28564;53.346;-6.554;2023-12-04T14:10:34;13;9;
40371;PMS5003;28564;53.346;-6.554;2023-12-04T14:13:01;8;5;
40371;PMS5003;28564;53.346;-6.554;2023-12-04T14:15:28;9;8;
40371;PMS5003;28564;53.346;-6.554;2023-12-04T14:17:55;6;6;
40371;PMS5003;28564;53.346;-6.554;2023-12-04T14:20:23;5;5;
40371;PMS5003;28564;53.346;-6.554;2023-12-04T14:22:50;8;6;
40371;PMS5003;28564;53.346;-6.554;2023-12-04T14:25:17;8;6;
40371;PMS5003;28564;53.346;-6.554;2023-12-04T14:27:44;9;9;
40371;PMS5003;28564;53.346;-6.554;2023-12-04T14:30:12;6;5;
40371;PMS5003;28564;53.346;-6.554;2023-12-04T14:32:39;6;6;
40371;PMS5003;28564;53.346;-6.554;2023-12-04T14:35:07;9;5;
40371;PMS5003;28564;53.346;-6.554;2023-12-04T14:37:35;8;5;
40371;PMS5003;28564;53.346;-6.554;2023-12-04T14:40:02;4;4;
40371;PMS5003;28564;53.346;-6.554;2023-12-04T14:42:30;8;8;
40371;PMS5003;28564;53.346;-6.554;2023-12-04T14:44:57;13;12;
40371;PMS5003;28564;53.346;-6.554;2023-12-04T14:47:24;6;5;
40371;PMS5003;28564;53.346;-6.554;2023-12-04T14:49:52;6;6;
40371;PMS5003;28564;53.346;-6.554;2023-12-04T14:52:19;10;8;
40371;PMS5003;28564;53.346;-6.554;2023-12-04T14:54:46;6;6;
40371;PMS5003;28564;53.346;-6.554;2023-12-04T14:57:13;6;6;
40371;PMS5003;28564;53.346;-6.554;2023-12-04T14:59:41;6;5;
40371;PMS5003;28564;53.346;-6.554;2023-12-04T15:02:09;8;4;
40371;PMS5003;28564;53.346;-6.554;2023-12-04T15:04:36;8;5;
40371;PMS5003;28564;53.346;-6.554;2023-12-04T15:07:03;8;5;
40371;PMS5003;28564;53.346;-6.554;2023-12-04T15:09:32;5;5;
40371;PMS5003;28564;53.346;-6.554;2023-12-04T15:11:59;4;4;
40371;PMS5003;28564;53.346;-6.554;2023-12-04T15:14:27;10;8;
40371;PMS5003;28564;53.346;-6.554;2023-12-04T15:16:54;5;5;
40371;PMS5003;28564;53.346;-6.554;2023-12-04T15:19:22;6;5;
40371;PMS5003;28564;53.346;-6.554;2023-12-04T15:21:49;3;3;
40371;PMS5003;28564;53.346;-6.554;2023-12-04T15:24:17;4;4;
40371;PMS5003;28564;53.346;-6.554;2023-12-04T15:26:44;4;4;
40371;PMS5003;28564;53.346;-6.554;2023-12-04T15:29:11;8;4;
40371;PMS5003;28564;53.346;-6.554;2023-12-04T15:31:38;9;5;
40371;PMS5003;28564;53.346;-6.554;2023-12-04T15:34:06;6;6;
40371;PMS5003;28564;53.346;-6.554;2023-12-04T15:36:33;8;5;
40371;PMS5003;28564;53.346;-6.554;2023-12-04T15:39:00;4;4;
40371;PMS5003;28564;53.346;-6.554;2023-12-04T15:41:28;8;5;
40371;PMS5003;28564;53.346;-6.554;2023-12-04T15:43:56;4;4;
40371;PMS5003;28564;53.346;-6.554;2023-12-04T15:46:23;6;5;
40371;PMS5003;28564;53.346;-6.554;2023-12-04T15:48:50;6;4;
40371;PMS5003;28564;53.346;-6.554;2023-12-04T15:51:17;4;4;
40371;PMS5003;28564;53.346;-6.554;2023-12-04T15:53:45;8;6;
40371;PMS5003;28564;53.346;-6.554;2023-12-04T15:56:12;5;5;
40371;PMS5003;28564;53.346;-6.554;2023-12-04T15:58:39;4;4;
40371;PMS5003;28564;53.346;-6.554;2023-12-04T16:01:06;9;6;
40371;PMS5003;28564;53.346;-6.554;2023-12-04T16:03:34;5;5;
40371;PMS5003;28564;53.346;-6.554;2023-12-04T16:06:01;10;6;
40371;PMS5003;28564;53.346;-6.554;2023-12-04T16:08:28;5;5;
40371;PMS5003;28564;53.346;-6.554;2023-12-04T16:10:56;6;5;
40371;PMS5003;28564;53.346;-6.554;2023-12-04T16:13:23;5;3;
40371;PMS5003;28564;53.346;-6.554;2023-12-04T16:15:51;5;3;
40371;PMS5003;28564;53.346;-6.554;2023-12-04T16:18:18;5;4;
40371;PMS5003;28564;53.346;-6.554;2023-12-04T16:20:46;4;4;
40371;PMS5003;28564;53.346;-6.554;2023-12-04T16:23:13;5;5;
40371;PMS5003;28564;53.346;-6.554;2023-12-04T16:25:41;5;5;
40371;PMS5003;28564;53.346;-6.554;2023-12-04T16:28:09;3;3;
40371;PMS5003;28564;53.346;-6.554;2023-12-04T16:30:36;6;5;
40371;PMS5003;28564;53.346;-6.554;2023-12-04T16:33:03;10;5;